Terminal Aerodrome Forecast
Issued by NWS Sterling, VA

Home | Current Version | Previous Version | Text Only | Print | Product List | Glossary On
Versions: 1 2 3 4 5 6 7 8 9 10 11 12 13 14 15 16 17 18 19 20 21 22 23 24 25
000
FTUS41 KLWX 020531
TAFIAD
TAF
KIAD 020531Z 0206/0312 VRB03KT P6SM FEW070 SCT250
     FM020800 32004KT 5SM BR FEW070 SCT250
     FM021300 33004KT P6SM BKN070 BKN250
     FM030800 31005KT P6SM FEW080 SCT250=

USA.gov is the U.S. government's official web portal to all federal, state and local government web resources and services.